createdAt,value
2022-12-11T00:00:15.872Z,-2.78
2022-12-11T00:05:41.041Z,-2.73
2022-12-11T00:10:50.302Z,-2.73
2022-12-11T00:15:53.297Z,-2.79
2022-12-11T00:21:01.753Z,-2.84
2022-12-11T00:26:15.521Z,-2.87
2022-12-11T00:31:20.707Z,-2.82
2022-12-11T00:36:26.718Z,-2.85
2022-12-11T00:41:29.981Z,-2.96
2022-12-11T00:46:32.980Z,-2.89
2022-12-11T00:51:36.194Z,-2.92
2022-12-11T00:56:39.583Z,-2.98
2022-12-11T01:01:42.702Z,-3.05
2022-12-11T01:06:45.740Z,-3.08
2022-12-11T01:11:48.826Z,-3.03
2022-12-11T01:16:51.951Z,-3.00
2022-12-11T01:21:54.949Z,-3.05
2022-12-11T01:26:57.958Z,-3.12
2022-12-11T01:32:00.914Z,-3.20
2022-12-11T01:37:04.015Z,-3.33
2022-12-11T01:42:10.460Z,-3.48
2022-12-11T01:47:14.073Z,-3.43
2022-12-11T01:52:22.438Z,-3.50
2022-12-11T01:57:25.440Z,-3.54
2022-12-11T02:02:32.425Z,-3.53
2022-12-11T02:07:48.677Z,-3.52
2022-12-11T02:13:08.014Z,-3.61
2022-12-11T02:18:29.167Z,-3.63
2022-12-11T02:23:59.452Z,-3.65
2022-12-11T02:29:10.250Z,-3.68
2022-12-11T02:34:46.882Z,-3.70
2022-12-11T02:39:54.277Z,-3.76
2022-12-11T02:45:01.655Z,-3.74
2022-12-11T02:50:12.734Z,-3.70
2022-12-11T02:55:23.105Z,-3.67
2022-12-11T03:00:26.499Z,-3.67
2022-12-11T03:05:30.479Z,-3.69
2022-12-11T03:10:33.794Z,-3.82
2022-12-11T03:15:47.044Z,-3.83
2022-12-11T03:21:07.247Z,-3.94
2022-12-11T03:26:14.734Z,-3.96
2022-12-11T03:31:30.162Z,-4.01
2022-12-11T03:36:37.545Z,-4.09
2022-12-11T03:41:44.322Z,-4.15
2022-12-11T03:46:49.549Z,-4.11
2022-12-11T03:51:55.621Z,-4.14
2022-12-11T03:57:02.391Z,-4.09
2022-12-11T04:02:11.170Z,-4.04
2022-12-11T04:07:14.259Z,-4.07
2022-12-11T04:12:17.288Z,-4.15
2022-12-11T04:17:39.062Z,-4.29
2022-12-11T04:23:00.615Z,-4.33
2022-12-11T04:28:03.762Z,-4.30
2022-12-11T04:33:06.902Z,-4.22
2022-12-11T04:38:09.921Z,-4.17
2022-12-11T04:43:12.939Z,-4.26
2022-12-11T04:48:15.869Z,-4.39
2022-12-11T04:53:18.831Z,-4.38
2022-12-11T04:58:22.678Z,-4.42
2022-12-11T05:03:25.623Z,-4.48
2022-12-11T05:08:28.725Z,-4.48
2022-12-11T05:13:31.940Z,-4.47
2022-12-11T05:18:35.790Z,-4.45
2022-12-11T05:23:39.790Z,-4.43
2022-12-11T05:28:44.525Z,-4.44
2022-12-11T05:33:50.355Z,-4.48
2022-12-11T05:38:55.018Z,-4.51
2022-12-11T05:43:58.048Z,-4.51
2022-12-11T05:49:02.444Z,-4.50
2022-12-11T05:54:05.751Z,-4.52
2022-12-11T05:59:09.183Z,-4.52
2022-12-11T06:04:13.385Z,-4.52
2022-12-11T06:09:17.311Z,-4.51
2022-12-11T06:14:20.429Z,-4.51
2022-12-11T06:19:23.450Z,-4.46
2022-12-11T06:24:26.343Z,-4.42
2022-12-11T06:29:29.335Z,-4.34
2022-12-11T06:34:32.345Z,-4.32
2022-12-11T06:39:35.294Z,-4.29
2022-12-11T06:44:38.270Z,-4.21
2022-12-11T06:49:41.293Z,-4.14
2022-12-11T06:54:44.249Z,-4.16
2022-12-11T06:59:47.283Z,-4.15
2022-12-11T07:04:54.894Z,-4.18
2022-12-11T07:10:04.083Z,-4.24
2022-12-11T07:15:11.191Z,-4.29
2022-12-11T07:20:14.446Z,-4.32
2022-12-11T07:25:17.555Z,-4.29
2022-12-11T07:30:20.605Z,-4.26
2022-12-11T07:35:23.486Z,-4.29
2022-12-11T07:40:26.406Z,-4.26
2022-12-11T07:45:29.823Z,-4.19
2022-12-11T07:50:38.056Z,-4.20
2022-12-11T07:55:42.936Z,-4.15
2022-12-11T08:00:45.847Z,-4.15
2022-12-11T08:05:50.920Z,-4.19
2022-12-11T08:10:53.890Z,-4.20
2022-12-11T08:15:57.039Z,-4.23
2022-12-11T08:21:06.371Z,-4.29
2022-12-11T08:26:15.133Z,-4.30
2022-12-11T08:31:19.835Z,-4.19
2022-12-11T08:36:24.588Z,-4.15
2022-12-11T08:41:30.560Z,-4.07
2022-12-11T08:46:33.834Z,-4.01
2022-12-11T08:51:37.049Z,-4.00
2022-12-11T08:56:40.078Z,-3.94
2022-12-11T09:01:43.106Z,-3.93
2022-12-11T09:06:46.309Z,-4.01
2022-12-11T09:11:49.998Z,-4.10
2022-12-11T09:16:53.054Z,-4.16
2022-12-11T09:21:56.404Z,-4.21
2022-12-11T09:26:59.763Z,-4.27
2022-12-11T09:32:04.376Z,-4.27
2022-12-11T09:37:08.382Z,-4.33
2022-12-11T09:42:32.127Z,-4.41
2022-12-11T09:47:45.835Z,-4.45
2022-12-11T09:53:01.259Z,-4.41
2022-12-11T09:58:11.557Z,-4.41
2022-12-11T10:03:47.718Z,-4.37
2022-12-11T10:09:24.547Z,-4.35
2022-12-11T10:14:40.900Z,-4.38
2022-12-11T10:19:45.647Z,-4.39
2022-12-11T10:25:14.499Z,-4.47
2022-12-11T10:30:34.522Z,-4.45
2022-12-11T10:35:51.872Z,-4.41
2022-12-11T10:41:04.801Z,-4.36
2022-12-11T10:46:23.902Z,-4.32
2022-12-11T10:51:32.865Z,-4.36
2022-12-11T10:56:38.092Z,-4.34
2022-12-11T11:01:47.662Z,-4.35
2022-12-11T11:07:13.071Z,-4.47
2022-12-11T11:12:27.933Z,-4.48
2022-12-11T11:17:35.385Z,-4.40
2022-12-11T11:22:47.564Z,-4.50
2022-12-11T11:27:58.578Z,-4.60
2022-12-11T11:33:15.764Z,-4.63
2022-12-11T11:38:23.745Z,-4.61
2022-12-11T11:44:07.289Z,-4.61
2022-12-11T11:49:12.830Z,-4.47
2022-12-11T11:54:33.289Z,-4.51
2022-12-11T11:59:49.579Z,-4.53
2022-12-11T12:04:53.384Z,-4.36
2022-12-11T12:10:23.673Z,-4.32
2022-12-11T12:15:35.898Z,-4.34
2022-12-11T12:20:56.671Z,-4.36
2022-12-11T12:26:15.057Z,-4.31
2022-12-11T12:31:44.285Z,-4.33
2022-12-11T12:38:00.545Z,-4.45
2022-12-11T12:43:28.947Z,-4.57
2022-12-11T12:48:33.122Z,-4.59
2022-12-11T12:53:37.590Z,-4.64
2022-12-11T12:58:45.785Z,-4.60
2022-12-11T13:03:59.088Z,-4.66
2022-12-11T13:09:32.970Z,-4.73
2022-12-11T13:14:36.534Z,-4.71
2022-12-11T13:19:42.703Z,-4.65
2022-12-11T13:24:53.005Z,-4.62
2022-12-11T13:30:16.299Z,-4.64
2022-12-11T13:35:20.982Z,-4.62
2022-12-11T13:40:35.301Z,-4.51
2022-12-11T13:45:51.021Z,-4.47
2022-12-11T13:50:56.441Z,-4.53
2022-12-11T13:56:00.933Z,-4.44
2022-12-11T14:01:14.627Z,-4.43
2022-12-11T14:06:19.164Z,-4.51
2022-12-11T14:11:30.434Z,-4.45
2022-12-11T14:16:34.389Z,-4.49
2022-12-11T14:21:38.537Z,-4.42
2022-12-11T14:26:53.081Z,-4.43
2022-12-11T14:32:01.710Z,-4.40
2022-12-11T14:37:08.315Z,-4.31
2022-12-11T14:42:23.318Z,-4.35
2022-12-11T14:47:32.528Z,-4.35
2022-12-11T14:52:53.879Z,-4.33
2022-12-11T14:58:15.310Z,-4.32
2022-12-11T15:03:18.164Z,-4.28
2022-12-11T15:08:31.282Z,-4.37
2022-12-11T15:13:39.018Z,-4.41
2022-12-11T15:18:43.102Z,-4.37
2022-12-11T15:23:45.916Z,-4.34
2022-12-11T15:29:01.217Z,-4.35
2022-12-11T15:34:04.277Z,-4.37
2022-12-11T15:39:09.566Z,-4.33
2022-12-11T15:44:22.433Z,-4.29
2022-12-11T15:49:25.393Z,-4.34
2022-12-11T15:54:28.342Z,-4.38
2022-12-11T15:59:33.142Z,-4.42
2022-12-11T16:04:36.223Z,-4.51
2022-12-11T16:09:39.152Z,-4.49
2022-12-11T16:14:44.527Z,-4.48
2022-12-11T16:19:47.521Z,-4.50
2022-12-11T16:24:55.183Z,-4.47
2022-12-11T16:29:58.133Z,-4.51
2022-12-11T16:35:01.338Z,-4.47
2022-12-11T16:40:08.991Z,-4.46
2022-12-11T16:45:22.000Z,-4.53
2022-12-11T16:50:26.025Z,-4.53
2022-12-11T16:55:28.986Z,-4.50
2022-12-11T17:00:31.937Z,-4.49
2022-12-11T17:05:34.840Z,-4.45
2022-12-11T17:10:42.355Z,-4.36
2022-12-11T17:15:46.162Z,-4.40
2022-12-11T17:20:49.339Z,-4.41
2022-12-11T17:25:53.044Z,-4.34
2022-12-11T17:30:57.293Z,-4.35
2022-12-11T17:36:03.063Z,-4.27
2022-12-11T17:41:09.388Z,-4.24
2022-12-11T17:46:14.239Z,-4.20
2022-12-11T17:51:24.615Z,-4.22
2022-12-11T17:56:27.672Z,-4.27
2022-12-11T18:01:30.808Z,-4.30
2022-12-11T18:06:33.969Z,-4.38
2022-12-11T18:11:37.117Z,-4.28
2022-12-11T18:16:40.143Z,-4.22
2022-12-11T18:21:45.919Z,-4.12
2022-12-11T18:26:49.224Z,-4.16
2022-12-11T18:31:52.305Z,-4.16
2022-12-11T18:36:55.714Z,-4.18
2022-12-11T18:42:31.060Z,-4.15
2022-12-11T18:47:21.997Z,-4.26
2022-12-11T18:52:24.906Z,-4.24
2022-12-11T18:57:27.898Z,-4.27
2022-12-11T19:02:30.816Z,-4.26
2022-12-11T19:07:33.871Z,-4.26
2022-12-11T19:12:36.929Z,-4.30
2022-12-11T19:17:39.913Z,-4.25
2022-12-11T19:22:42.851Z,-4.20
2022-12-11T19:27:47.622Z,-4.23
2022-12-11T19:32:50.549Z,-4.24
2022-12-11T19:37:53.434Z,-4.16
2022-12-11T19:42:56.466Z,-4.16
2022-12-11T19:47:59.441Z,-4.17
2022-12-11T19:53:02.663Z,-4.14
2022-12-11T19:58:06.010Z,-4.09
2022-12-11T20:03:09.119Z,-4.04
2022-12-11T20:08:42.981Z,-4.01
2022-12-11T20:13:40.800Z,-3.94
2022-12-11T20:18:44.868Z,-3.91
2022-12-11T20:23:48.332Z,-3.84
2022-12-11T20:28:53.453Z,-3.79
2022-12-11T20:33:57.710Z,-3.72
2022-12-11T20:39:00.892Z,-3.69
2022-12-11T20:44:03.956Z,-3.64
2022-12-11T20:49:12.882Z,-3.58
2022-12-11T20:54:16.112Z,-3.50
2022-12-11T20:59:19.165Z,-3.43
2022-12-11T21:04:23.675Z,-3.32
2022-12-11T21:09:27.969Z,-3.23
2022-12-11T21:14:32.287Z,-3.18
2022-12-11T21:19:35.195Z,-3.12
2022-12-11T21:24:38.485Z,-3.06
2022-12-11T21:29:41.546Z,-2.97
2022-12-11T21:34:44.404Z,-2.88
2022-12-11T21:39:47.423Z,-2.83
2022-12-11T21:45:51.833Z,-2.78
2022-12-11T21:50:13.400Z,-2.73
2022-12-11T21:55:18.343Z,-2.66
2022-12-11T22:00:22.550Z,-2.61
2022-12-11T22:05:25.525Z,-2.55
2022-12-11T22:10:29.658Z,-2.52
2022-12-11T22:15:32.611Z,-2.46
2022-12-11T22:20:35.516Z,-2.38
2022-12-11T22:25:39.560Z,-2.30
2022-12-11T22:30:43.612Z,-2.23
2022-12-11T22:35:46.569Z,-2.16
2022-12-11T22:40:49.674Z,-2.11
2022-12-11T22:45:52.675Z,-2.03
2022-12-11T22:50:55.585Z,-1.98
2022-12-11T22:55:58.531Z,-1.95
2022-12-11T23:01:03.083Z,-1.89
2022-12-11T23:06:11.195Z,-1.82
2022-12-11T23:11:26.805Z,-1.77
2022-12-11T23:16:29.830Z,-1.74
2022-12-11T23:21:33.859Z,-1.66
2022-12-11T23:26:37.872Z,-1.60
2022-12-11T23:31:40.859Z,-1.55
2022-12-11T23:36:43.753Z,-1.50
2022-12-11T23:41:46.741Z,-1.45
2022-12-11T23:46:49.841Z,-1.37
2022-12-11T23:51:52.826Z,-1.32
2022-12-11T23:56:55.851Z,-1.28
